Flying Dolphin Xvii — SV9699 — position and weather

sailwx.info

Track history (hours):
 
Tides and Currents Weather Stations Pressure Air Temp Water Temp Dewpoint Dewpoint Depression Visibility Wind Speed Wind Dir Waves Ship Positions

Flying Dolphin Xvii

Last reported at 2018-Jan-21 06:47 UTC. Time now 2018-Jan-21 08:19 UTC.
Position N 37°56' E 023°38'.

Length 35 m.

MMSI: 237023600.

Date/timePositionNaut miles runAvg speedWind from/ knotsBaromVisibWave heightAir tempDewpointWater temp
2018-Jan-21 06:47N 37°56' E 023°38'827.6
2018-Jan-21 06:30N 37°52' E 023°30'2031.0
2018-Jan-21 05:51N 37°33' E 023°25'9 0.7
2018-Jan-20 16:32N 37°26' E 023°33'818.2
2018-Jan-20 16:04N 37°32' E 023°25'332.9
2018-Jan-20 16:00N 37°34' E 023°25'1531.0
2018-Jan-20 15:31N 37°49' E 023°28'1223.0
2018-Jan-20 15:00N 37°57' E 023°39'0 0.0
2018-Jan-20 14:31N 37°57' E 023°39'0 0.0
2018-Jan-20 06:54N 37°57' E 023°39'410.9
2018-Jan-20 06:31N 37°53' E 023°36'1631.5
2018-Jan-20 06:01N 37°38' E 023°30'917.2
2018-Jan-20 05:30N 37°29' E 023°29'9 0.8
2018-Jan-19 17:31N 37°22' E 023°22'033.1
2018-Jan-19 17:30N 37°22' E 023°23'913.7
2018-Jan-19 16:51N 37°29' E 023°29'412.4
2018-Jan-19 16:31N 37°32' E 023°25'1632.2
2018-Jan-19 16:01N 37°48' E 023°27'1224.3
2018-Jan-19 15:30N 37°57' E 023°39'1 1.7
2018-Jan-19 15:01N 37°56' E 023°38'1530.0
2018-Jan-19 14:30N 37°45' E 023°25'714.7
2018-Jan-19 14:00N 37°50' E 023°31'817.0
2018-Jan-19 13:31N 37°57' E 023°39'1122.5
2018-Jan-19 13:01N 37°49' E 023°29'815.7
2018-Jan-19 12:31N 37°43' E 023°21'4 6.9
2018-Jan-19 11:59N 37°45' E 023°26'1326.4
2018-Jan-19 11:31N 37°56' E 023°34'3 6.5
2018-Jan-19 11:00N 37°56' E 023°38'1429.1
2018-Jan-19 10:31N 37°46' E 023°25'611.1
2018-Jan-19 10:01N 37°51' E 023°27'1020.8
2018-Jan-19 09:30N 37°57' E 023°39'2 4.5
2018-Jan-19 09:01N 37°56' E 023°36'1721.8
2018-Jan-19 08:13N 37°43' E 023°21'0 1.7
2018-Jan-19 08:00N 37°43' E 023°22'714.8
2018-Jan-19 07:31N 37°50' E 023°27'1222.7
2018-Jan-19 07:00N 37°57' E 023°39'4 7.2
2018-Jan-19 06:31N 37°54' E 023°36'1632.3
2018-Jan-19 06:01N 37°38' E 023°30'917.6
2018-Jan-19 05:30N 37°29' E 023°29'  
2018-Jan-11 07:35N 37°58' E 023°34'0 1.0
2018-Jan-11 07:31N 37°58' E 023°34'4 7.6
2018-Jan-11 07:00N 37°57' E 023°39'  
Track history (hours):
 
Tides and Currents Weather Stations Pressure Air Temp Water Temp Dewpoint Dewpoint Depression Visibility Wind Speed Wind Dir Waves Ship Positions

Flying Dolphin Xvii

Last reported at 2018-Jan-21 06:47 UTC. Time now 2018-Jan-21 08:19 UTC.
Position N 37°56' E 023°38'.

Length 35 m.

MMSI: 237023600.

Date/timePositionNaut miles runAvg speedWind from/ knotsBaromVisibWave heightAir tempDewpointWater temp
2018-Jan-21 06:47N 37°56' E 023°38'827.6
2018-Jan-21 06:30N 37°52' E 023°30'2031.0
2018-Jan-21 05:51N 37°33' E 023°25'9 0.7
2018-Jan-20 16:32N 37°26' E 023°33'818.2
2018-Jan-20 16:04N 37°32' E 023°25'332.9
2018-Jan-20 16:00N 37°34' E 023°25'1531.0
2018-Jan-20 15:31N 37°49' E 023°28'1223.0
2018-Jan-20 15:00N 37°57' E 023°39'0 0.0
2018-Jan-20 14:31N 37°57' E 023°39'0 0.0
2018-Jan-20 06:54N 37°57' E 023°39'410.9
2018-Jan-20 06:31N 37°53' E 023°36'1631.5
2018-Jan-20 06:01N 37°38' E 023°30'917.2
2018-Jan-20 05:30N 37°29' E 023°29'9 0.8
2018-Jan-19 17:31N 37°22' E 023°22'033.1
2018-Jan-19 17:30N 37°22' E 023°23'913.7
2018-Jan-19 16:51N 37°29' E 023°29'412.4
2018-Jan-19 16:31N 37°32' E 023°25'1632.2
2018-Jan-19 16:01N 37°48' E 023°27'1224.3
2018-Jan-19 15:30N 37°57' E 023°39'1 1.7
2018-Jan-19 15:01N 37°56' E 023°38'1530.0
2018-Jan-19 14:30N 37°45' E 023°25'714.7
2018-Jan-19 14:00N 37°50' E 023°31'817.0
2018-Jan-19 13:31N 37°57' E 023°39'1122.5
2018-Jan-19 13:01N 37°49' E 023°29'815.7
2018-Jan-19 12:31N 37°43' E 023°21'4 6.9
2018-Jan-19 11:59N 37°45' E 023°26'1326.4
2018-Jan-19 11:31N 37°56' E 023°34'3 6.5
2018-Jan-19 11:00N 37°56' E 023°38'1429.1
2018-Jan-19 10:31N 37°46' E 023°25'611.1
2018-Jan-19 10:01N 37°51' E 023°27'1020.8
2018-Jan-19 09:30N 37°57' E 023°39'2 4.5
2018-Jan-19 09:01N 37°56' E 023°36'1721.8
2018-Jan-19 08:13N 37°43' E 023°21'0 1.7
2018-Jan-19 08:00N 37°43' E 023°22'714.8
2018-Jan-19 07:31N 37°50' E 023°27'1222.7
2018-Jan-19 07:00N 37°57' E 023°39'4 7.2
2018-Jan-19 06:31N 37°54' E 023°36'1632.3
2018-Jan-19 06:01N 37°38' E 023°30'917.6
2018-Jan-19 05:30N 37°29' E 023°29'  
2018-Jan-11 07:35N 37°58' E 023°34'0 1.0
2018-Jan-11 07:31N 37°58' E 023°34'4 7.6
2018-Jan-11 07:00N 37°57' E 023°39'  

Dump ship's entire track history